createdAt,value
2023-05-22T00:01:06.708Z,16.50
2023-05-22T00:03:33.799Z,16.56
2023-05-22T00:06:00.541Z,16.81
2023-05-22T00:08:29.638Z,16.86
2023-05-22T00:10:56.536Z,16.93
2023-05-22T00:13:23.045Z,16.96
2023-05-22T00:15:49.600Z,16.92
2023-05-22T00:18:16.079Z,16.79
2023-05-22T00:20:42.585Z,16.94
2023-05-22T00:23:10.369Z,16.97
2023-05-22T00:25:37.557Z,16.88
2023-05-22T00:28:04.781Z,16.76
2023-05-22T00:30:31.786Z,16.92
2023-05-22T00:32:58.442Z,16.99
2023-05-22T00:35:25.123Z,16.33
2023-05-22T00:37:51.708Z,16.81
2023-05-22T00:40:18.346Z,16.64
2023-05-22T00:42:44.988Z,16.89
2023-05-22T00:45:12.039Z,16.75
2023-05-22T00:47:38.519Z,16.39
2023-05-22T00:50:06.514Z,16.78
2023-05-22T00:52:35.714Z,16.28
2023-05-22T00:55:03.862Z,16.66
2023-05-22T00:57:31.391Z,16.53
2023-05-22T00:59:58.731Z,16.65
2023-05-22T01:02:25.190Z,16.62
2023-05-22T01:04:52.855Z,16.58
2023-05-22T01:07:19.352Z,16.59
2023-05-22T01:09:45.880Z,16.51
2023-05-22T01:12:34.383Z,16.49
2023-05-22T01:15:26.190Z,16.57
2023-05-22T01:18:11.085Z,16.55
2023-05-22T01:20:48.789Z,16.50
2023-05-22T01:23:43.304Z,16.49
2023-05-22T01:26:43.538Z,16.25
2023-05-22T01:29:18.800Z,16.41
2023-05-22T01:31:48.525Z,15.99
2023-05-22T01:34:17.322Z,16.29
2023-05-22T01:36:47.035Z,16.21
2023-05-22T01:39:15.109Z,16.15
2023-05-22T01:41:42.265Z,16.00
2023-05-22T01:44:08.748Z,15.92
2023-05-22T01:46:35.237Z,15.71
2023-05-22T01:49:01.691Z,15.75
2023-05-22T01:51:57.498Z,15.94
2023-05-22T01:54:43.086Z,15.99
2023-05-22T01:57:18.527Z,16.04
2023-05-22T01:59:45.551Z,16.06
2023-05-22T02:02:15.124Z,15.96
2023-05-22T02:04:45.062Z,15.82
2023-05-22T02:07:13.803Z,15.81
2023-05-22T02:09:41.828Z,15.94
2023-05-22T02:12:08.828Z,15.72
2023-05-22T02:14:36.797Z,15.74
2023-05-22T02:17:03.356Z,15.53
2023-05-22T02:19:29.851Z,15.62
2023-05-22T02:21:56.385Z,15.65
2023-05-22T02:24:23.657Z,15.92
2023-05-22T02:26:50.144Z,15.67
2023-05-22T02:29:16.675Z,15.66
2023-05-22T02:31:43.346Z,15.74
2023-05-22T02:34:09.878Z,15.76
2023-05-22T02:36:37.293Z,15.93
2023-05-22T02:39:05.153Z,16.01
2023-05-22T02:41:31.803Z,15.92
2023-05-22T02:43:58.257Z,15.92
2023-05-22T02:46:24.722Z,15.93
2023-05-22T02:48:51.161Z,15.96
2023-05-22T02:51:17.704Z,15.96
2023-05-22T02:53:44.179Z,15.78
2023-05-22T02:56:12.042Z,15.87
2023-05-22T02:58:39.325Z,15.75
2023-05-22T03:01:09.079Z,15.59
2023-05-22T03:03:35.655Z,15.80
2023-05-22T03:06:04.218Z,15.78
2023-05-22T03:08:31.681Z,15.83
2023-05-22T03:10:59.850Z,15.79
2023-05-22T03:13:26.355Z,15.79
2023-05-22T03:15:53.001Z,15.65
2023-05-22T03:18:19.563Z,15.68
2023-05-22T03:20:46.106Z,15.66
2023-05-22T03:23:13.366Z,15.70
2023-05-22T03:25:39.850Z,15.68
2023-05-22T03:28:06.465Z,15.80
2023-05-22T03:30:33.601Z,15.52
2023-05-22T03:33:00.379Z,15.38
2023-05-22T03:35:26.833Z,15.82
2023-05-22T03:37:53.262Z,15.55
2023-05-22T03:40:19.823Z,15.81
2023-05-22T03:42:46.269Z,15.79
2023-05-22T03:45:12.853Z,15.77
2023-05-22T03:47:39.334Z,15.75
2023-05-22T03:50:06.120Z,15.59
2023-05-22T03:52:32.664Z,15.69
2023-05-22T03:54:59.147Z,15.72
2023-05-22T03:57:25.761Z,15.67
2023-05-22T03:59:52.201Z,15.75
2023-05-22T04:02:18.739Z,15.48
2023-05-22T04:04:48.062Z,15.65
2023-05-22T04:07:14.690Z,15.66
2023-05-22T04:09:41.452Z,15.68
2023-05-22T04:12:08.350Z,15.61
2023-05-22T04:14:34.815Z,15.62
2023-05-22T04:17:01.271Z,15.64
2023-05-22T04:19:28.213Z,15.63
2023-05-22T04:21:54.922Z,15.55
2023-05-22T04:24:23.088Z,15.37
2023-05-22T04:26:49.927Z,15.38
2023-05-22T04:29:16.549Z,15.40
2023-05-22T04:31:43.413Z,15.47
2023-05-22T04:34:15.767Z,15.60
2023-05-22T04:36:45.081Z,15.60
2023-05-22T04:39:11.782Z,15.56
2023-05-22T04:41:39.053Z,15.29
2023-05-22T04:44:05.641Z,15.57
2023-05-22T04:46:34.369Z,15.57
2023-05-22T04:49:02.003Z,15.56
2023-05-22T04:51:28.886Z,15.57
2023-05-22T04:53:55.797Z,15.54
2023-05-22T04:56:34.724Z,15.63
2023-05-22T04:59:04.729Z,15.44
2023-05-22T05:01:33.192Z,15.62
2023-05-22T05:04:00.584Z,15.56
2023-05-22T05:06:27.370Z,15.19
2023-05-22T05:08:54.129Z,15.71
2023-05-22T05:11:21.614Z,15.72
2023-05-22T05:13:48.158Z,15.70
2023-05-22T05:16:14.735Z,15.72
2023-05-22T05:18:41.263Z,15.82
2023-05-22T05:21:08.093Z,15.93
2023-05-22T05:23:34.505Z,15.59
2023-05-22T05:26:01.047Z,15.79
2023-05-22T05:28:27.482Z,16.07
2023-05-22T05:30:53.943Z,16.11
2023-05-22T05:33:20.386Z,15.91
2023-05-22T05:35:46.831Z,16.16
2023-05-22T05:38:13.296Z,16.13
2023-05-22T05:40:40.067Z,16.11
2023-05-22T05:43:09.219Z,16.34
2023-05-22T05:45:36.071Z,16.28
2023-05-22T05:48:02.566Z,16.37
2023-05-22T05:50:29.028Z,16.46
2023-05-22T05:52:55.543Z,16.51
2023-05-22T05:55:22.009Z,16.42
2023-05-22T05:57:48.464Z,16.52
2023-05-22T06:00:15.269Z,16.37
2023-05-22T06:02:42.237Z,16.61
2023-05-22T06:05:09.222Z,16.87
2023-05-22T06:07:39.806Z,16.93
2023-05-22T06:10:08.350Z,16.65
2023-05-22T06:12:34.800Z,17.06
2023-05-22T06:15:01.286Z,17.12
2023-05-22T06:17:27.894Z,17.10
2023-05-22T06:19:54.470Z,17.22
2023-05-22T06:22:21.125Z,17.14
2023-05-22T06:24:47.570Z,17.35
2023-05-22T06:27:14.679Z,17.42
2023-05-22T06:29:41.150Z,17.34
2023-05-22T06:32:07.955Z,17.30
2023-05-22T06:34:34.461Z,17.39
2023-05-22T06:37:00.948Z,17.71
2023-05-22T06:39:27.757Z,17.74
2023-05-22T06:41:55.179Z,17.35
2023-05-22T06:44:21.628Z,17.77
2023-05-22T06:46:48.057Z,17.96
2023-05-22T06:49:17.416Z,17.69
2023-05-22T06:51:43.983Z,18.08
2023-05-22T06:54:12.374Z,18.02
2023-05-22T06:56:38.885Z,18.18
2023-05-22T06:59:06.355Z,18.12
2023-05-22T07:01:33.301Z,18.20
2023-05-22T07:04:01.325Z,18.25
2023-05-22T07:06:28.204Z,18.31
2023-05-22T07:08:54.695Z,18.43
2023-05-22T07:11:21.142Z,18.52
2023-05-22T07:13:47.648Z,18.10
2023-05-22T07:16:14.802Z,18.67
2023-05-22T07:18:41.995Z,18.65
2023-05-22T07:21:08.492Z,18.73
2023-05-22T07:23:34.930Z,18.80
2023-05-22T07:26:01.378Z,18.93
2023-05-22T07:28:27.859Z,18.72
2023-05-22T07:30:54.341Z,19.08
2023-05-22T07:33:21.008Z,19.18
2023-05-22T07:35:47.519Z,19.25
2023-05-22T07:38:13.925Z,19.26
2023-05-22T07:40:40.586Z,19.32
2023-05-22T07:43:07.206Z,19.38
2023-05-22T07:45:33.687Z,19.32
2023-05-22T07:48:01.963Z,19.43
2023-05-22T07:50:30.427Z,19.37
2023-05-22T07:52:56.958Z,19.15
2023-05-22T07:55:23.444Z,19.49
2023-05-22T07:57:50.882Z,19.61
2023-05-22T08:00:17.918Z,19.69
2023-05-22T08:02:45.080Z,19.75
2023-05-22T08:05:11.940Z,19.94
2023-05-22T08:07:38.629Z,19.81
2023-05-22T08:10:12.965Z,19.61
2023-05-22T08:12:39.428Z,20.01
2023-05-22T08:15:06.640Z,19.85
2023-05-22T08:17:33.195Z,19.98
2023-05-22T08:19:59.789Z,20.05
2023-05-22T08:22:26.385Z,20.09
2023-05-22T08:24:52.812Z,20.14
2023-05-22T08:27:19.257Z,20.11
2023-05-22T08:29:45.805Z,20.10
2023-05-22T08:32:12.261Z,20.24
2023-05-22T08:34:40.296Z,20.20
2023-05-22T08:37:06.750Z,20.22
2023-05-22T08:39:33.186Z,20.36
2023-05-22T08:41:59.718Z,20.44
2023-05-22T08:44:26.296Z,20.34
2023-05-22T08:46:56.545Z,20.54
2023-05-22T08:49:24.419Z,20.45
2023-05-22T08:51:56.124Z,20.64
2023-05-22T08:54:26.006Z,20.70
2023-05-22T08:56:57.256Z,20.82
2023-05-22T08:59:24.845Z,20.87
2023-05-22T09:01:52.787Z,21.01
2023-05-22T09:04:23.611Z,21.20
2023-05-22T09:06:50.768Z,21.31
2023-05-22T09:09:17.911Z,21.29
2023-05-22T09:11:44.439Z,21.40
2023-05-22T09:14:11.647Z,21.64
2023-05-22T09:16:52.783Z,21.66
2023-05-22T09:19:19.289Z,21.88
2023-05-22T09:21:46.387Z,21.83
2023-05-22T09:24:13.004Z,21.94
2023-05-22T09:26:40.160Z,21.89
2023-05-22T09:29:07.449Z,22.00
2023-05-22T09:31:41.735Z,22.06
2023-05-22T09:34:10.208Z,22.32
2023-05-22T09:36:36.731Z,22.58
2023-05-22T09:39:04.723Z,22.66
2023-05-22T09:41:35.627Z,22.64
2023-05-22T09:44:02.456Z,22.83
2023-05-22T09:46:29.469Z,22.77
2023-05-22T09:48:56.088Z,22.74
2023-05-22T09:51:23.854Z,22.78
2023-05-22T09:53:51.292Z,22.98
2023-05-22T09:56:27.076Z,22.93
2023-05-22T09:59:01.848Z,22.50
2023-05-22T10:01:28.905Z,22.75
2023-05-22T10:03:57.170Z,22.80
2023-05-22T10:06:25.176Z,23.16
2023-05-22T10:08:57.644Z,23.37
2023-05-22T10:11:26.583Z,23.42
2023-05-22T10:13:53.793Z,23.50
2023-05-22T10:16:21.174Z,23.75
2023-05-22T10:18:49.116Z,23.67
2023-05-22T10:21:16.671Z,23.43
2023-05-22T10:23:44.233Z,23.48
2023-05-22T10:26:11.234Z,23.50
2023-05-22T10:28:51.064Z,23.49
2023-05-22T10:31:30.095Z,23.30
2023-05-22T10:34:01.576Z,23.70
2023-05-22T10:36:49.160Z,23.72
2023-05-22T10:39:54.363Z,23.70
2023-05-22T10:42:20.900Z,23.62
2023-05-22T10:44:48.560Z,23.53
2023-05-22T10:47:15.028Z,23.45
2023-05-22T10:49:45.474Z,23.37
2023-05-22T10:52:14.502Z,23.26
2023-05-22T10:54:45.780Z,23.22
2023-05-22T10:57:16.385Z,23.70
2023-05-22T10:59:43.821Z,23.52
2023-05-22T11:02:31.139Z,23.99
2023-05-22T11:05:22.787Z,24.17
2023-05-22T11:07:49.274Z,24.28
2023-05-22T11:10:26.117Z,24.34
2023-05-22T11:13:12.100Z,24.46
2023-05-22T11:15:45.330Z,24.45
2023-05-22T11:18:12.769Z,24.52
2023-05-22T11:20:40.083Z,24.53
2023-05-22T11:23:08.113Z,24.19
2023-05-22T11:25:36.603Z,24.63
2023-05-22T11:28:06.764Z,24.72
2023-05-22T11:30:34.373Z,24.93
2023-05-22T11:33:01.986Z,25.12
2023-05-22T11:35:28.959Z,24.90
2023-05-22T11:37:56.339Z,24.88
2023-05-22T11:40:26.776Z,24.78
2023-05-22T11:42:53.962Z,24.65
2023-05-22T11:45:21.346Z,24.76
2023-05-22T11:47:48.719Z,24.98
2023-05-22T11:50:22.733Z,25.07
2023-05-22T11:52:56.437Z,25.28
2023-05-22T11:55:23.262Z,25.31
2023-05-22T11:57:49.799Z,25.33
2023-05-22T12:00:17.142Z,25.35
2023-05-22T12:02:47.520Z,25.66
2023-05-22T12:05:15.858Z,25.60
2023-05-22T12:07:42.854Z,25.91
2023-05-22T12:10:09.672Z,25.95
2023-05-22T12:12:37.222Z,25.84
2023-05-22T12:15:07.303Z,25.95
2023-05-22T12:17:37.236Z,25.91
2023-05-22T12:20:05.178Z,26.47
2023-05-22T12:22:31.837Z,26.91
2023-05-22T12:24:58.303Z,27.33
2023-05-22T12:27:30.498Z,27.66
2023-05-22T12:29:58.796Z,28.01
2023-05-22T12:32:25.731Z,28.38
2023-05-22T12:34:52.358Z,28.60
2023-05-22T12:37:25.296Z,28.03
2023-05-22T12:39:56.779Z,28.02
2023-05-22T12:42:24.026Z,28.02
2023-05-22T12:44:53.160Z,27.97
2023-05-22T12:47:19.748Z,28.10
2023-05-22T12:49:46.230Z,28.25
2023-05-22T12:52:13.356Z,28.24
2023-05-22T12:54:39.965Z,28.13
2023-05-22T12:57:06.602Z,27.87
2023-05-22T12:59:33.845Z,27.71
2023-05-22T13:02:02.356Z,27.32
2023-05-22T13:04:29.638Z,27.93
2023-05-22T13:06:56.481Z,28.03
2023-05-22T13:09:23.037Z,28.10
2023-05-22T13:11:49.536Z,28.22
2023-05-22T13:14:16.168Z,28.34
2023-05-22T13:16:42.811Z,28.20
2023-05-22T13:19:09.450Z,28.49
2023-05-22T13:21:36.698Z,28.59
2023-05-22T13:24:04.343Z,28.07
2023-05-22T13:26:31.036Z,28.12
2023-05-22T13:28:57.499Z,28.18
2023-05-22T13:31:23.980Z,27.96
2023-05-22T13:33:50.710Z,27.89
2023-05-22T13:36:18.411Z,28.01
2023-05-22T13:38:44.839Z,27.99
2023-05-22T13:41:11.513Z,28.02
2023-05-22T13:43:37.956Z,27.81
2023-05-22T13:46:04.607Z,27.79
2023-05-22T13:48:31.158Z,27.82
2023-05-22T13:50:57.615Z,27.69
2023-05-22T13:53:24.073Z,27.61
2023-05-22T13:55:51.073Z,27.32
2023-05-22T13:58:17.540Z,27.33
2023-05-22T14:00:44.029Z,27.15
2023-05-22T14:03:11.691Z,27.30
2023-05-22T14:05:38.601Z,27.28
2023-05-22T14:08:05.315Z,26.90
2023-05-22T14:10:31.821Z,26.90
2023-05-22T14:12:58.341Z,27.22
2023-05-22T14:15:24.858Z,27.04
2023-05-22T14:17:51.301Z,26.73
2023-05-22T14:20:18.027Z,26.66
2023-05-22T14:22:56.602Z,26.39
2023-05-22T14:25:24.521Z,26.89
2023-05-22T14:27:51.004Z,27.05
2023-05-22T14:30:17.653Z,27.04
2023-05-22T14:32:44.302Z,26.80
2023-05-22T14:35:10.975Z,26.82
2023-05-22T14:37:37.461Z,26.51
2023-05-22T14:40:04.782Z,26.50
2023-05-22T14:42:31.414Z,26.41
2023-05-22T14:44:58.101Z,26.47
2023-05-22T14:47:24.545Z,26.44
2023-05-22T14:49:51.620Z,25.78
2023-05-22T14:52:18.140Z,26.17
2023-05-22T14:54:44.583Z,26.27
2023-05-22T14:57:10.993Z,25.65
2023-05-22T14:59:37.508Z,25.44
2023-05-22T15:02:04.027Z,25.12
2023-05-22T15:04:30.686Z,25.11
2023-05-22T15:06:57.161Z,24.62
2023-05-22T15:09:23.682Z,24.58
2023-05-22T15:11:51.064Z,24.15
2023-05-22T15:14:17.620Z,24.15
2023-05-22T15:16:44.346Z,24.10
2023-05-22T15:19:11.129Z,23.85
2023-05-22T15:21:37.737Z,23.94
2023-05-22T15:24:04.263Z,23.99
2023-05-22T15:26:30.686Z,23.98
2023-05-22T15:29:01.266Z,24.27
2023-05-22T15:31:28.749Z,24.32
2023-05-22T15:33:55.511Z,24.10
2023-05-22T15:36:22.171Z,24.05
2023-05-22T15:38:48.666Z,24.27
2023-05-22T15:41:15.219Z,24.21
2023-05-22T15:43:41.736Z,24.26
2023-05-22T15:46:08.577Z,24.56
2023-05-22T15:48:35.360Z,24.85
2023-05-22T15:51:01.992Z,24.97
2023-05-22T15:53:28.458Z,25.03
2023-05-22T15:55:54.948Z,25.25
2023-05-22T15:58:21.368Z,25.46
2023-05-22T16:00:47.804Z,25.74
2023-05-22T16:03:15.172Z,25.66
2023-05-22T16:05:42.124Z,25.78
2023-05-22T16:08:11.735Z,25.65
2023-05-22T16:10:41.386Z,25.81
2023-05-22T16:13:10.491Z,25.66
2023-05-22T16:15:39.545Z,25.85
2023-05-22T16:18:07.114Z,25.93
2023-05-22T16:20:34.396Z,25.58
2023-05-22T16:23:00.874Z,25.68
2023-05-22T16:25:27.350Z,25.78
2023-05-22T16:27:53.858Z,25.68
2023-05-22T16:30:21.224Z,25.56
2023-05-22T16:32:48.585Z,25.45
2023-05-22T16:35:15.998Z,25.25
2023-05-22T16:37:42.502Z,25.06
2023-05-22T16:40:09.466Z,24.72
2023-05-22T16:42:36.476Z,24.65
2023-05-22T16:45:04.007Z,24.65
2023-05-22T16:47:30.735Z,24.31
2023-05-22T16:49:57.185Z,24.00
2023-05-22T16:52:25.556Z,24.24
2023-05-22T16:54:52.716Z,24.27
2023-05-22T16:57:19.548Z,23.97
2023-05-22T16:59:46.265Z,23.69
2023-05-22T17:02:13.567Z,23.63
2023-05-22T17:04:41.038Z,23.76
2023-05-22T17:07:07.605Z,23.63
2023-05-22T17:09:34.178Z,23.51
2023-05-22T17:12:01.079Z,23.66
2023-05-22T17:14:27.725Z,23.50
2023-05-22T17:16:55.218Z,23.49
2023-05-22T17:19:21.756Z,23.30
2023-05-22T17:21:48.264Z,23.41
2023-05-22T17:24:15.005Z,23.45
2023-05-22T17:26:41.883Z,23.73
2023-05-22T17:29:08.863Z,23.57
2023-05-22T17:31:38.273Z,23.79
2023-05-22T17:34:06.017Z,23.80
2023-05-22T17:36:32.657Z,23.54
2023-05-22T17:38:59.558Z,23.68
2023-05-22T17:41:26.454Z,23.64
2023-05-22T17:43:54.645Z,23.59
2023-05-22T17:46:21.306Z,23.38
2023-05-22T17:48:47.788Z,23.25
2023-05-22T17:51:15.063Z,22.96
2023-05-22T17:53:41.553Z,23.06
2023-05-22T17:56:08.090Z,22.82
2023-05-22T17:58:34.584Z,22.48
2023-05-22T18:01:01.141Z,22.54
2023-05-22T18:03:27.749Z,22.36
2023-05-22T18:05:54.357Z,22.31
2023-05-22T18:08:21.380Z,22.25
2023-05-22T18:10:49.065Z,22.19
2023-05-22T18:13:15.550Z,22.10
2023-05-22T18:15:42.173Z,21.99
2023-05-22T18:18:10.687Z,21.87
2023-05-22T18:20:38.861Z,21.77
2023-05-22T18:23:05.861Z,21.82
2023-05-22T18:25:32.278Z,21.82
2023-05-22T18:27:58.746Z,21.73
2023-05-22T18:30:25.348Z,21.67
2023-05-22T18:32:52.021Z,21.57
2023-05-22T18:35:18.457Z,21.58
2023-05-22T18:37:45.096Z,21.50
2023-05-22T18:40:12.448Z,21.46
2023-05-22T18:42:39.042Z,21.48
2023-05-22T18:45:06.594Z,21.40
2023-05-22T18:47:33.104Z,21.27
2023-05-22T18:49:59.574Z,21.17
2023-05-22T18:52:26.016Z,21.06
2023-05-22T18:54:52.453Z,21.00
2023-05-22T18:57:18.884Z,21.01
2023-05-22T18:59:46.224Z,21.02
2023-05-22T19:02:12.767Z,20.90
2023-05-22T19:04:39.480Z,20.94
2023-05-22T19:07:05.914Z,20.82
2023-05-22T19:09:32.340Z,20.80
2023-05-22T19:11:58.817Z,20.57
2023-05-22T19:14:25.343Z,20.62
2023-05-22T19:16:51.907Z,20.55
2023-05-22T19:19:18.514Z,20.47
2023-05-22T19:21:44.983Z,20.33
2023-05-22T19:24:11.488Z,20.18
2023-05-22T19:26:37.949Z,20.04
2023-05-22T19:29:04.393Z,19.68
2023-05-22T19:31:31.156Z,20.15
2023-05-22T19:33:57.730Z,19.99
2023-05-22T19:36:24.230Z,20.07
2023-05-22T19:38:52.542Z,19.75
2023-05-22T19:41:20.144Z,19.88
2023-05-22T19:43:46.576Z,19.80
2023-05-22T19:46:13.051Z,19.72
2023-05-22T19:48:39.498Z,19.66
2023-05-22T19:51:06.987Z,19.72
2023-05-22T19:53:34.157Z,19.68
2023-05-22T19:56:03.995Z,19.63
2023-05-22T19:58:30.556Z,19.44
2023-05-22T20:00:57.041Z,19.59
2023-05-22T20:03:24.320Z,19.40
2023-05-22T20:05:52.827Z,19.27
2023-05-22T20:08:21.559Z,19.12
2023-05-22T20:10:48.290Z,19.00
2023-05-22T20:13:14.748Z,18.85
2023-05-22T20:15:41.438Z,18.87
2023-05-22T20:18:10.615Z,18.90
2023-05-22T20:20:37.096Z,18.76
2023-05-22T20:23:03.587Z,18.81
2023-05-22T20:25:30.147Z,18.71
2023-05-22T20:27:56.600Z,18.80
2023-05-22T20:30:23.114Z,18.48
2023-05-22T20:32:49.603Z,18.58
2023-05-22T20:35:20.107Z,18.53
2023-05-22T20:37:46.645Z,18.48
2023-05-22T20:40:13.468Z,18.29
2023-05-22T20:42:41.040Z,18.47
2023-05-22T20:45:08.729Z,18.40
2023-05-22T20:47:36.097Z,18.31
2023-05-22T20:50:02.657Z,18.34
2023-05-22T20:52:32.048Z,18.26
2023-05-22T20:54:58.471Z,18.16
2023-05-22T20:57:25.546Z,18.15
2023-05-22T20:59:55.093Z,18.24
2023-05-22T21:02:21.922Z,18.35
2023-05-22T21:04:48.397Z,18.32
2023-05-22T21:07:14.951Z,18.35
2023-05-22T21:09:41.723Z,18.30
2023-05-22T21:12:08.474Z,18.25
2023-05-22T21:14:35.077Z,18.05
2023-05-22T21:17:01.732Z,18.10
2023-05-22T21:19:28.220Z,18.07
2023-05-22T21:21:54.689Z,17.83
2023-05-22T21:24:21.825Z,17.76
2023-05-22T21:26:48.277Z,17.35
2023-05-22T21:29:14.712Z,17.11
2023-05-22T21:31:41.153Z,17.13
2023-05-22T21:34:08.364Z,17.17
2023-05-22T21:36:34.797Z,17.08
2023-05-22T21:39:01.329Z,17.10
2023-05-22T21:41:27.983Z,17.46
2023-05-22T21:43:54.416Z,17.38
2023-05-22T21:46:24.431Z,17.16
2023-05-22T21:48:51.117Z,17.22
2023-05-22T21:51:17.622Z,17.07
2023-05-22T21:53:44.066Z,16.87
2023-05-22T21:56:10.726Z,16.78
2023-05-22T21:58:37.226Z,16.53
2023-05-22T22:01:03.778Z,16.72
2023-05-22T22:03:30.478Z,16.73
2023-05-22T22:05:57.098Z,16.69
2023-05-22T22:08:23.592Z,16.53
2023-05-22T22:10:50.037Z,16.67
2023-05-22T22:13:16.574Z,16.65
2023-05-22T22:15:43.175Z,16.63
2023-05-22T22:18:09.876Z,16.41
2023-05-22T22:20:44.349Z,16.38
2023-05-22T22:23:12.033Z,16.39
2023-05-22T22:25:39.163Z,16.25
2023-05-22T22:28:06.154Z,16.27
2023-05-22T22:30:32.716Z,16.28
2023-05-22T22:32:59.561Z,16.06
2023-05-22T22:35:26.356Z,16.06
2023-05-22T22:37:52.854Z,15.84
2023-05-22T22:40:19.298Z,16.08
2023-05-22T22:42:45.774Z,16.21
2023-05-22T22:45:12.250Z,16.18
2023-05-22T22:47:39.276Z,16.16
2023-05-22T22:50:06.197Z,16.19
2023-05-22T22:52:32.615Z,16.22
2023-05-22T22:54:59.071Z,16.15
2023-05-22T22:57:25.697Z,16.17
2023-05-22T22:59:52.141Z,16.15
2023-05-22T23:02:18.578Z,16.12
2023-05-22T23:04:45.125Z,15.98
2023-05-22T23:07:11.740Z,16.14
2023-05-22T23:09:39.944Z,16.08
2023-05-22T23:12:06.684Z,16.01
2023-05-22T23:14:33.162Z,15.82
2023-05-22T23:16:59.580Z,15.93
2023-05-22T23:19:26.320Z,15.85
2023-05-22T23:21:53.569Z,15.61
2023-05-22T23:24:20.008Z,15.68
2023-05-22T23:26:46.436Z,15.79
2023-05-22T23:29:13.201Z,15.58
2023-05-22T23:31:40.421Z,15.46
2023-05-22T23:34:07.076Z,15.29
2023-05-22T23:36:33.696Z,15.54
2023-05-22T23:39:00.263Z,15.16
2023-05-22T23:41:27.497Z,15.22
2023-05-22T23:43:54.166Z,15.40
2023-05-22T23:46:21.303Z,15.46
2023-05-22T23:48:47.896Z,15.57
2023-05-22T23:51:15.222Z,15.59
2023-05-22T23:53:42.246Z,15.53
2023-05-22T23:56:09.298Z,15.40
2023-05-22T23:58:37.478Z,15.10
